sensor_id;sensor_type;location;lat;lon;timestamp;P1;durP1;ratioP1;P2;durP2;ratioP2
9496;SDS011;4786;51.270;4.456;2023-04-30T00:00:22;7.53;;;5.93;;
9496;SDS011;4786;51.270;4.456;2023-04-30T00:02:48;6.73;;;5.83;;
9496;SDS011;4786;51.270;4.456;2023-04-30T00:05:14;6.43;;;5.80;;
9496;SDS011;4786;51.270;4.456;2023-04-30T00:07:40;8.23;;;6.40;;
9496;SDS011;4786;51.270;4.456;2023-04-30T00:10:07;6.73;;;6.13;;
9496;SDS011;4786;51.270;4.456;2023-04-30T00:12:34;8.17;;;6.20;;
9496;SDS011;4786;51.270;4.456;2023-04-30T00:15:00;7.90;;;6.87;;
9496;SDS011;4786;51.270;4.456;2023-04-30T00:17:26;7.20;;;6.13;;
9496;SDS011;4786;51.270;4.456;2023-04-30T00:19:51;7.03;;;6.17;;
9496;SDS011;4786;51.270;4.456;2023-04-30T00:22:17;7.20;;;6.40;;
9496;SDS011;4786;51.270;4.456;2023-04-30T00:24:43;7.90;;;6.23;;
9496;SDS011;4786;51.270;4.456;2023-04-30T00:27:09;7.20;;;5.67;;
9496;SDS011;4786;51.270;4.456;2023-04-30T00:29:35;6.43;;;5.83;;
9496;SDS011;4786;51.270;4.456;2023-04-30T00:32:01;8.10;;;6.40;;
9496;SDS011;4786;51.270;4.456;2023-04-30T00:34:27;9.27;;;6.80;;
9496;SDS011;4786;51.270;4.456;2023-04-30T00:36:53;7.47;;;6.63;;
9496;SDS011;4786;51.270;4.456;2023-04-30T00:39:19;7.23;;;6.53;;
9496;SDS011;4786;51.270;4.456;2023-04-30T00:41:45;9.03;;;6.73;;
9496;SDS011;4786;51.270;4.456;2023-04-30T00:44:11;8.57;;;7.50;;
9496;SDS011;4786;51.270;4.456;2023-04-30T00:46:37;8.43;;;7.07;;
9496;SDS011;4786;51.270;4.456;2023-04-30T00:49:03;7.80;;;7.03;;
9496;SDS011;4786;51.270;4.456;2023-04-30T00:51:32;6.87;;;6.07;;
9496;SDS011;4786;51.270;4.456;2023-04-30T00:54:00;7.67;;;6.80;;
9496;SDS011;4786;51.270;4.456;2023-04-30T00:56:27;7.90;;;7.13;;
9496;SDS011;4786;51.270;4.456;2023-04-30T00:58:55;8.10;;;6.67;;
9496;SDS011;4786;51.270;4.456;2023-04-30T01:01:22;7.60;;;6.90;;
9496;SDS011;4786;51.270;4.456;2023-04-30T01:03:49;8.10;;;7.30;;
9496;SDS011;4786;51.270;4.456;2023-04-30T01:06:16;8.80;;;7.20;;
9496;SDS011;4786;51.270;4.456;2023-04-30T01:08:42;8.53;;;7.67;;
9496;SDS011;4786;51.270;4.456;2023-04-30T01:16:42;9.10;;;7.53;;
9496;SDS011;4786;51.270;4.456;2023-04-30T01:22:08;8.53;;;7.70;;
9496;SDS011;4786;51.270;4.456;2023-04-30T01:27:20;9.37;;;7.50;;
9496;SDS011;4786;51.270;4.456;2023-04-30T01:29:55;7.90;;;7.13;;
9496;SDS011;4786;51.270;4.456;2023-04-30T01:32:22;8.47;;;7.50;;
9496;SDS011;4786;51.270;4.456;2023-04-30T01:34:48;9.00;;;7.63;;
9496;SDS011;4786;51.270;4.456;2023-04-30T01:37:24;8.20;;;7.40;;
9496;SDS011;4786;51.270;4.456;2023-04-30T01:50:46;8.00;;;7.30;;
9496;SDS011;4786;51.270;4.456;2023-04-30T01:53:23;8.83;;;7.60;;
9496;SDS011;4786;51.270;4.456;2023-04-30T01:56:04;8.93;;;8.03;;
9496;SDS011;4786;51.270;4.456;2023-04-30T01:58:34;10.73;;;8.83;;
9496;SDS011;4786;51.270;4.456;2023-04-30T02:01:02;9.20;;;8.30;;
9496;SDS011;4786;51.270;4.456;2023-04-30T02:03:28;8.77;;;7.97;;
9496;SDS011;4786;51.270;4.456;2023-04-30T02:05:53;8.87;;;7.90;;
9496;SDS011;4786;51.270;4.456;2023-04-30T02:08:20;9.00;;;7.97;;
9496;SDS011;4786;51.270;4.456;2023-04-30T02:10:46;9.43;;;8.47;;
9496;SDS011;4786;51.270;4.456;2023-04-30T02:13:12;10.77;;;8.20;;
9496;SDS011;4786;51.270;4.456;2023-04-30T02:15:38;9.93;;;8.60;;
9496;SDS011;4786;51.270;4.456;2023-04-30T02:18:04;9.23;;;8.30;;
9496;SDS011;4786;51.270;4.456;2023-04-30T02:20:30;9.77;;;8.43;;
9496;SDS011;4786;51.270;4.456;2023-04-30T02:22:56;9.23;;;8.33;;
9496;SDS011;4786;51.270;4.456;2023-04-30T02:25:22;9.20;;;8.27;;
9496;SDS011;4786;51.270;4.456;2023-04-30T02:27:48;9.07;;;8.17;;
9496;SDS011;4786;51.270;4.456;2023-04-30T02:30:15;8.40;;;7.57;;
9496;SDS011;4786;51.270;4.456;2023-04-30T02:32:41;8.67;;;7.80;;
9496;SDS011;4786;51.270;4.456;2023-04-30T02:35:07;10.30;;;8.40;;
9496;SDS011;4786;51.270;4.456;2023-04-30T02:37:33;10.17;;;8.37;;
9496;SDS011;4786;51.270;4.456;2023-04-30T02:39:59;9.37;;;8.37;;
9496;SDS011;4786;51.270;4.456;2023-04-30T02:42:24;8.97;;;8.07;;
9496;SDS011;4786;51.270;4.456;2023-04-30T02:44:50;9.23;;;8.33;;
9496;SDS011;4786;51.270;4.456;2023-04-30T02:47:16;9.67;;;8.70;;
9496;SDS011;4786;51.270;4.456;2023-04-30T02:49:42;10.97;;;8.67;;
9496;SDS011;4786;51.270;4.456;2023-04-30T02:52:08;9.63;;;8.73;;
9496;SDS011;4786;51.270;4.456;2023-04-30T02:54:34;9.70;;;8.27;;
9496;SDS011;4786;51.270;4.456;2023-04-30T02:57:00;9.20;;;8.30;;
9496;SDS011;4786;51.270;4.456;2023-04-30T02:59:26;10.10;;;9.10;;
9496;SDS011;4786;51.270;4.456;2023-04-30T03:01:52;9.63;;;8.63;;
9496;SDS011;4786;51.270;4.456;2023-04-30T03:04:18;9.53;;;8.53;;
9496;SDS011;4786;51.270;4.456;2023-04-30T03:06:44;9.07;;;8.13;;
9496;SDS011;4786;51.270;4.456;2023-04-30T03:09:10;10.33;;;9.10;;
9496;SDS011;4786;51.270;4.456;2023-04-30T03:11:36;10.23;;;8.40;;
9496;SDS011;4786;51.270;4.456;2023-04-30T03:14:02;11.60;;;8.20;;
9496;SDS011;4786;51.270;4.456;2023-04-30T03:16:28;8.87;;;7.90;;
9496;SDS011;4786;51.270;4.456;2023-04-30T03:18:55;9.83;;;8.83;;
9496;SDS011;4786;51.270;4.456;2023-04-30T03:21:21;10.23;;;8.60;;
9496;SDS011;4786;51.270;4.456;2023-04-30T03:23:47;9.43;;;8.63;;
9496;SDS011;4786;51.270;4.456;2023-04-30T03:26:13;10.87;;;8.67;;
9496;SDS011;4786;51.270;4.456;2023-04-30T03:28:39;10.93;;;9.17;;
9496;SDS011;4786;51.270;4.456;2023-04-30T03:31:05;11.13;;;9.83;;
9496;SDS011;4786;51.270;4.456;2023-04-30T03:33:31;11.30;;;10.13;;
9496;SDS011;4786;51.270;4.456;2023-04-30T03:35:58;13.13;;;9.87;;
9496;SDS011;4786;51.270;4.456;2023-04-30T03:38:23;15.53;;;9.87;;
9496;SDS011;4786;51.270;4.456;2023-04-30T03:40:49;12.23;;;9.90;;
9496;SDS011;4786;51.270;4.456;2023-04-30T03:43:16;10.13;;;9.13;;
9496;SDS011;4786;51.270;4.456;2023-04-30T03:45:41;10.20;;;9.20;;
9496;SDS011;4786;51.270;4.456;2023-04-30T03:48:07;10.73;;;9.20;;
9496;SDS011;4786;51.270;4.456;2023-04-30T03:50:33;10.03;;;9.03;;
9496;SDS011;4786;51.270;4.456;2023-04-30T03:52:59;10.47;;;9.43;;
9496;SDS011;4786;51.270;4.456;2023-04-30T03:55:25;10.30;;;9.20;;
9496;SDS011;4786;51.270;4.456;2023-04-30T03:57:50;11.70;;;10.50;;
9496;SDS011;4786;51.270;4.456;2023-04-30T04:00:17;10.87;;;9.77;;
9496;SDS011;4786;51.270;4.456;2023-04-30T04:02:43;10.20;;;9.30;;
9496;SDS011;4786;51.270;4.456;2023-04-30T04:05:09;11.00;;;9.30;;
9496;SDS011;4786;51.270;4.456;2023-04-30T04:07:36;9.80;;;8.77;;
9496;SDS011;4786;51.270;4.456;2023-04-30T04:10:02;10.17;;;9.17;;
9496;SDS011;4786;51.270;4.456;2023-04-30T04:12:28;11.20;;;9.07;;
9496;SDS011;4786;51.270;4.456;2023-04-30T04:14:54;11.17;;;9.47;;
9496;SDS011;4786;51.270;4.456;2023-04-30T04:17:20;10.47;;;9.37;;
9496;SDS011;4786;51.270;4.456;2023-04-30T04:19:46;10.53;;;9.43;;
9496;SDS011;4786;51.270;4.456;2023-04-30T04:22:12;10.73;;;9.63;;
9496;SDS011;4786;51.270;4.456;2023-04-30T04:24:38;11.13;;;9.83;;
9496;SDS011;4786;51.270;4.456;2023-04-30T04:27:03;11.00;;;9.90;;
9496;SDS011;4786;51.270;4.456;2023-04-30T04:29:29;11.43;;;10.33;;
9496;SDS011;4786;51.270;4.456;2023-04-30T04:31:56;12.57;;;10.07;;
9496;SDS011;4786;51.270;4.456;2023-04-30T04:34:21;12.53;;;9.60;;
9496;SDS011;4786;51.270;4.456;2023-04-30T04:36:47;10.00;;;9.10;;
9496;SDS011;4786;51.270;4.456;2023-04-30T04:39:13;11.20;;;10.00;;
9496;SDS011;4786;51.270;4.456;2023-04-30T04:41:39;11.93;;;10.73;;
9496;SDS011;4786;51.270;4.456;2023-04-30T04:44:06;10.93;;;9.93;;
9496;SDS011;4786;51.270;4.456;2023-04-30T04:46:32;12.07;;;10.77;;
9496;SDS011;4786;51.270;4.456;2023-04-30T04:48:59;11.93;;;10.57;;
9496;SDS011;4786;51.270;4.456;2023-04-30T04:51:25;12.17;;;10.83;;
9496;SDS011;4786;51.270;4.456;2023-04-30T04:53:51;11.33;;;10.23;;
9496;SDS011;4786;51.270;4.456;2023-04-30T04:56:17;11.20;;;10.17;;
9496;SDS011;4786;51.270;4.456;2023-04-30T04:58:43;9.90;;;9.00;;
9496;SDS011;4786;51.270;4.456;2023-04-30T05:01:09;12.13;;;10.87;;
9496;SDS011;4786;51.270;4.456;2023-04-30T05:03:35;11.50;;;10.23;;
9496;SDS011;4786;51.270;4.456;2023-04-30T05:06:03;10.70;;;9.70;;
9496;SDS011;4786;51.270;4.456;2023-04-30T05:08:30;10.23;;;8.30;;
9496;SDS011;4786;51.270;4.456;2023-04-30T05:10:56;11.90;;;10.50;;
9496;SDS011;4786;51.270;4.456;2023-04-30T05:13:22;12.47;;;10.17;;
9496;SDS011;4786;51.270;4.456;2023-04-30T05:15:49;11.27;;;10.17;;
9496;SDS011;4786;51.270;4.456;2023-04-30T05:18:16;13.33;;;11.37;;
9496;SDS011;4786;51.270;4.456;2023-04-30T05:20:42;12.57;;;10.63;;
9496;SDS011;4786;51.270;4.456;2023-04-30T05:23:08;12.07;;;10.87;;
9496;SDS011;4786;51.270;4.456;2023-04-30T05:25:34;12.63;;;11.40;;
9496;SDS011;4786;51.270;4.456;2023-04-30T05:28:01;12.87;;;11.57;;
9496;SDS011;4786;51.270;4.456;2023-04-30T05:30:27;13.90;;;12.50;;
9496;SDS011;4786;51.270;4.456;2023-04-30T05:32:53;14.53;;;13.03;;
9496;SDS011;4786;51.270;4.456;2023-04-30T05:35:20;15.33;;;12.97;;
9496;SDS011;4786;51.270;4.456;2023-04-30T05:37:46;11.97;;;10.77;;
9496;SDS011;4786;51.270;4.456;2023-04-30T05:40:13;13.07;;;11.67;;
9496;SDS011;4786;51.270;4.456;2023-04-30T05:42:40;12.20;;;11.00;;
9496;SDS011;4786;51.270;4.456;2023-04-30T05:45:07;11.60;;;9.47;;
9496;SDS011;4786;51.270;4.456;2023-04-30T05:47:38;10.07;;;9.07;;
9496;SDS011;4786;51.270;4.456;2023-04-30T05:50:05;10.87;;;9.77;;
9496;SDS011;4786;51.270;4.456;2023-04-30T05:52:31;11.73;;;10.57;;
9496;SDS011;4786;51.270;4.456;2023-04-30T05:54:57;11.43;;;9.70;;
9496;SDS011;4786;51.270;4.456;2023-04-30T05:57:23;9.82;;;8.93;;
9496;SDS011;4786;51.270;4.456;2023-04-30T05:59:49;9.93;;;8.90;;
9496;SDS011;4786;51.270;4.456;2023-04-30T06:02:15;10.43;;;9.52;;
9496;SDS011;4786;51.270;4.456;2023-04-30T06:04:41;9.27;;;8.38;;
9496;SDS011;4786;51.270;4.456;2023-04-30T06:07:07;10.27;;;9.35;;
9496;SDS011;4786;51.270;4.456;2023-04-30T06:09:33;10.75;;;9.75;;
9496;SDS011;4786;51.270;4.456;2023-04-30T06:11:58;9.63;;;8.73;;
9496;SDS011;4786;51.270;4.456;2023-04-30T06:14:24;9.90;;;8.80;;
9496;SDS011;4786;51.270;4.456;2023-04-30T06:16:51;10.35;;;9.32;;
9496;SDS011;4786;51.270;4.456;2023-04-30T06:19:17;10.60;;;9.60;;
9496;SDS011;4786;51.270;4.456;2023-04-30T06:21:43;9.68;;;8.88;;
9496;SDS011;4786;51.270;4.456;2023-04-30T06:24:09;10.23;;;9.23;;
9496;SDS011;4786;51.270;4.456;2023-04-30T06:26:35;9.23;;;8.32;;
9496;SDS011;4786;51.270;4.456;2023-04-30T06:29:01;9.32;;;8.45;;
9496;SDS011;4786;51.270;4.456;2023-04-30T06:31:27;9.82;;;8.93;;
9496;SDS011;4786;51.270;4.456;2023-04-30T06:33:52;8.93;;;8.13;;
9496;SDS011;4786;51.270;4.456;2023-04-30T06:36:18;9.38;;;7.85;;
9496;SDS011;4786;51.270;4.456;2023-04-30T06:38:45;8.70;;;8.00;;
9496;SDS011;4786;51.270;4.456;2023-04-30T06:41:11;8.95;;;8.13;;
9496;SDS011;4786;51.270;4.456;2023-04-30T06:43:38;9.85;;;8.10;;
9496;SDS011;4786;51.270;4.456;2023-04-30T06:46:03;9.20;;;8.32;;
9496;SDS011;4786;51.270;4.456;2023-04-30T06:48:30;9.02;;;8.18;;
9496;SDS011;4786;51.270;4.456;2023-04-30T06:50:57;8.25;;;7.55;;
9496;SDS011;4786;51.270;4.456;2023-04-30T06:53:23;9.73;;;8.18;;
9496;SDS011;4786;51.270;4.456;2023-04-30T06:55:49;8.32;;;7.55;;
9496;SDS011;4786;51.270;4.456;2023-04-30T06:58:15;9.27;;;8.48;;
9496;SDS011;4786;51.270;4.456;2023-04-30T07:00:42;8.57;;;7.78;;
9496;SDS011;4786;51.270;4.456;2023-04-30T07:03:08;9.68;;;8.75;;
9496;SDS011;4786;51.270;4.456;2023-04-30T07:05:34;10.27;;;9.27;;
9496;SDS011;4786;51.270;4.456;2023-04-30T07:08:00;10.70;;;9.77;;
9496;SDS011;4786;51.270;4.456;2023-04-30T07:10:27;9.85;;;8.85;;
9496;SDS011;4786;51.270;4.456;2023-04-30T07:12:53;10.63;;;9.40;;
9496;SDS011;4786;51.270;4.456;2023-04-30T07:15:19;10.70;;;9.30;;
9496;SDS011;4786;51.270;4.456;2023-04-30T07:17:45;10.52;;;9.40;;
9496;SDS011;4786;51.270;4.456;2023-04-30T07:20:11;10.07;;;9.00;;
9496;SDS011;4786;51.270;4.456;2023-04-30T07:22:41;10.03;;;9.03;;
9496;SDS011;4786;51.270;4.456;2023-04-30T07:25:11;10.07;;;9.13;;
9496;SDS011;4786;51.270;4.456;2023-04-30T07:27:37;11.83;;;10.07;;
9496;SDS011;4786;51.270;4.456;2023-04-30T07:30:04;10.63;;;9.53;;
9496;SDS011;4786;51.270;4.456;2023-04-30T07:32:33;11.23;;;9.40;;
9496;SDS011;4786;51.270;4.456;2023-04-30T07:34:59;11.40;;;9.27;;
9496;SDS011;4786;51.270;4.456;2023-04-30T07:37:25;11.17;;;9.33;;
9496;SDS011;4786;51.270;4.456;2023-04-30T07:39:51;10.03;;;9.07;;
9496;SDS011;4786;51.270;4.456;2023-04-30T07:42:17;12.33;;;10.00;;
9496;SDS011;4786;51.270;4.456;2023-04-30T07:44:43;11.77;;;10.43;;
9496;SDS011;4786;51.270;4.456;2023-04-30T07:47:09;11.53;;;10.43;;
9496;SDS011;4786;51.270;4.456;2023-04-30T07:49:35;10.70;;;9.60;;
9496;SDS011;4786;51.270;4.456;2023-04-30T07:52:01;9.17;;;8.23;;
9496;SDS011;4786;51.270;4.456;2023-04-30T07:54:27;9.77;;;8.77;;
9496;SDS011;4786;51.270;4.456;2023-04-30T07:56:53;10.73;;;9.63;;
9496;SDS011;4786;51.270;4.456;2023-04-30T07:59:19;10.53;;;9.53;;
9496;SDS011;4786;51.270;4.456;2023-04-30T08:01:48;10.63;;;9.53;;
9496;SDS011;4786;51.270;4.456;2023-04-30T08:04:17;10.17;;;9.17;;
9496;SDS011;4786;51.270;4.456;2023-04-30T08:06:42;9.67;;;8.67;;
9496;SDS011;4786;51.270;4.456;2023-04-30T08:09:09;9.33;;;8.40;;
9496;SDS011;4786;51.270;4.456;2023-04-30T08:11:35;10.07;;;8.90;;
9496;SDS011;4786;51.270;4.456;2023-04-30T08:14:01;9.23;;;8.33;;
9496;SDS011;4786;51.270;4.456;2023-04-30T08:16:27;8.90;;;8.03;;
9496;SDS011;4786;51.270;4.456;2023-04-30T08:18:53;8.67;;;7.70;;
9496;SDS011;4786;51.270;4.456;2023-04-30T08:21:18;10.27;;;9.30;;
9496;SDS011;4786;51.270;4.456;2023-04-30T08:23:44;10.97;;;7.90;;
9496;SDS011;4786;51.270;4.456;2023-04-30T08:26:11;10.63;;;8.13;;
9496;SDS011;4786;51.270;4.456;2023-04-30T08:28:36;8.07;;;7.30;;
9496;SDS011;4786;51.270;4.456;2023-04-30T08:31:02;7.37;;;6.67;;
9496;SDS011;4786;51.270;4.456;2023-04-30T08:33:28;8.77;;;7.47;;
9496;SDS011;4786;51.270;4.456;2023-04-30T08:35:53;14.07;;;7.67;;
9496;SDS011;4786;51.270;4.456;2023-04-30T08:38:20;7.97;;;7.27;;
9496;SDS011;4786;51.270;4.456;2023-04-30T08:40:51;6.97;;;6.37;;
9496;SDS011;4786;51.270;4.456;2023-04-30T08:43:24;7.20;;;6.50;;
9496;SDS011;4786;51.270;4.456;2023-04-30T08:45:51;7.87;;;7.13;;
9496;SDS011;4786;51.270;4.456;2023-04-30T08:48:17;7.63;;;6.87;;
9496;SDS011;4786;51.270;4.456;2023-04-30T08:50:45;7.87;;;6.87;;
9496;SDS011;4786;51.270;4.456;2023-04-30T08:53:11;7.90;;;6.90;;
9496;SDS011;4786;51.270;4.456;2023-04-30T08:55:39;6.90;;;6.20;;
9496;SDS011;4786;51.270;4.456;2023-04-30T08:58:07;11.20;;;7.13;;
9496;SDS011;4786;51.270;4.456;2023-04-30T09:00:34;7.63;;;6.83;;
9496;SDS011;4786;51.270;4.456;2023-04-30T09:03:02;7.93;;;6.50;;
9496;SDS011;4786;51.270;4.456;2023-04-30T09:05:29;7.77;;;6.73;;
9496;SDS011;4786;51.270;4.456;2023-04-30T09:07:55;8.77;;;6.33;;
9496;SDS011;4786;51.270;4.456;2023-04-30T09:10:21;7.40;;;6.20;;
9496;SDS011;4786;51.270;4.456;2023-04-30T09:13:06;7.50;;;5.93;;
9496;SDS011;4786;51.270;4.456;2023-04-30T09:15:33;6.43;;;5.70;;
9496;SDS011;4786;51.270;4.456;2023-04-30T09:18:13;6.00;;;5.30;;
9496;SDS011;4786;51.270;4.456;2023-04-30T09:20:59;5.30;;;4.40;;
9496;SDS011;4786;51.270;4.456;2023-04-30T09:23:26;4.90;;;4.50;;
9496;SDS011;4786;51.270;4.456;2023-04-30T09:25:53;6.97;;;3.73;;
9496;SDS011;4786;51.270;4.456;2023-04-30T09:28:20;5.90;;;5.03;;
9496;SDS011;4786;51.270;4.456;2023-04-30T09:30:51;6.27;;;5.17;;
9496;SDS011;4786;51.270;4.456;2023-04-30T09:33:18;5.43;;;4.43;;
9496;SDS011;4786;51.270;4.456;2023-04-30T09:35:44;5.43;;;4.47;;
9496;SDS011;4786;51.270;4.456;2023-04-30T09:40:58;4.77;;;4.37;;
9496;SDS011;4786;51.270;4.456;2023-04-30T09:43:26;4.97;;;4.47;;
9496;SDS011;4786;51.270;4.456;2023-04-30T09:45:53;5.63;;;4.60;;
9496;SDS011;4786;51.270;4.456;2023-04-30T09:48:22;5.70;;;4.93;;
9496;SDS011;4786;51.270;4.456;2023-04-30T09:50:50;7.63;;;3.80;;
9496;SDS011;4786;51.270;4.456;2023-04-30T09:53:16;6.80;;;3.65;;
9496;SDS011;4786;51.270;4.456;2023-04-30T09:55:43;3.75;;;3.42;;
9496;SDS011;4786;51.270;4.456;2023-04-30T09:58:11;3.15;;;2.85;;
9496;SDS011;4786;51.270;4.456;2023-04-30T10:00:37;5.20;;;4.70;;
9496;SDS011;4786;51.270;4.456;2023-04-30T10:03:10;5.00;;;3.50;;
9496;SDS011;4786;51.270;4.456;2023-04-30T10:05:39;4.18;;;3.35;;
9496;SDS011;4786;51.270;4.456;2023-04-30T10:08:14;4.00;;;2.65;;
9496;SDS011;4786;51.270;4.456;2023-04-30T10:10:57;2.15;;;1.95;;
9496;SDS011;4786;51.270;4.456;2023-04-30T10:13:30;2.60;;;2.40;;
9496;SDS011;4786;51.270;4.456;2023-04-30T10:16:02;2.70;;;2.50;;
9496;SDS011;4786;51.270;4.456;2023-04-30T10:18:36;3.17;;;2.72;;
9496;SDS011;4786;51.270;4.456;2023-04-30T10:21:05;2.85;;;2.50;;
9496;SDS011;4786;51.270;4.456;2023-04-30T10:23:38;3.45;;;2.75;;
9496;SDS011;4786;51.270;4.456;2023-04-30T10:26:07;3.17;;;2.80;;
9496;SDS011;4786;51.270;4.456;2023-04-30T10:28:36;2.72;;;2.53;;
9496;SDS011;4786;51.270;4.456;2023-04-30T10:31:03;4.45;;;2.85;;
9496;SDS011;4786;51.270;4.456;2023-04-30T10:36:05;3.05;;;2.50;;
9496;SDS011;4786;51.270;4.456;2023-04-30T10:38:35;2.53;;;2.28;;
9496;SDS011;4786;51.270;4.456;2023-04-30T10:41:04;2.22;;;2.08;;
9496;SDS011;4786;51.270;4.456;2023-04-30T10:43:32;3.97;;;3.13;;
9496;SDS011;4786;51.270;4.456;2023-04-30T10:46:00;2.70;;;2.50;;
9496;SDS011;4786;51.270;4.456;2023-04-30T10:48:26;2.70;;;2.50;;
9496;SDS011;4786;51.270;4.456;2023-04-30T10:50:55;4.22;;;2.55;;
9496;SDS011;4786;51.270;4.456;2023-04-30T10:53:22;2.58;;;2.08;;
9496;SDS011;4786;51.270;4.456;2023-04-30T10:55:56;3.92;;;2.58;;
9496;SDS011;4786;51.270;4.456;2023-04-30T10:58:33;4.22;;;2.40;;
9496;SDS011;4786;51.270;4.456;2023-04-30T11:01:12;3.20;;;2.90;;
9496;SDS011;4786;51.270;4.456;2023-04-30T11:06:53;2.28;;;2.08;;
9496;SDS011;4786;51.270;4.456;2023-04-30T11:12:04;3.00;;;2.80;;
9496;SDS011;4786;51.270;4.456;2023-04-30T11:14:44;3.33;;;2.40;;
9496;SDS011;4786;51.270;4.456;2023-04-30T11:17:12;3.38;;;2.65;;
9496;SDS011;4786;51.270;4.456;2023-04-30T11:19:47;2.78;;;2.58;;
9496;SDS011;4786;51.270;4.456;2023-04-30T11:22:15;3.17;;;2.90;;
9496;SDS011;4786;51.270;4.456;2023-04-30T11:24:52;4.70;;;2.67;;
9496;SDS011;4786;51.270;4.456;2023-04-30T11:29:56;4.65;;;2.88;;
9496;SDS011;4786;51.270;4.456;2023-04-30T11:32:24;3.25;;;2.95;;
9496;SDS011;4786;51.270;4.456;2023-04-30T11:34:56;3.30;;;2.97;;
9496;SDS011;4786;51.270;4.456;2023-04-30T11:37:32;3.85;;;3.17;;
9496;SDS011;4786;51.270;4.456;2023-04-30T11:40:01;3.58;;;3.08;;
9496;SDS011;4786;51.270;4.456;2023-04-30T11:42:30;3.50;;;3.20;;
9496;SDS011;4786;51.270;4.456;2023-04-30T11:47:41;3.15;;;2.40;;
9496;SDS011;4786;51.270;4.456;2023-04-30T11:50:09;3.65;;;2.70;;
9496;SDS011;4786;51.270;4.456;2023-04-30T11:52:37;2.90;;;2.70;;
9496;SDS011;4786;51.270;4.456;2023-04-30T11:55:04;4.10;;;2.83;;
9496;SDS011;4786;51.270;4.456;2023-04-30T11:57:52;3.90;;;2.78;;
9496;SDS011;4786;51.270;4.456;2023-04-30T12:00:20;2.80;;;2.60;;
9496;SDS011;4786;51.270;4.456;2023-04-30T12:02:50;3.88;;;2.70;;
9496;SDS011;4786;51.270;4.456;2023-04-30T12:07:50;3.33;;;2.80;;
9496;SDS011;4786;51.270;4.456;2023-04-30T12:10:20;3.95;;;2.65;;
9496;SDS011;4786;51.270;4.456;2023-04-30T12:12:47;3.17;;;2.97;;
9496;SDS011;4786;51.270;4.456;2023-04-30T12:15:19;3.53;;;3.22;;
9496;SDS011;4786;51.270;4.456;2023-04-30T12:17:57;3.38;;;2.72;;
9496;SDS011;4786;51.270;4.456;2023-04-30T12:20:27;4.32;;;2.90;;
9496;SDS011;4786;51.270;4.456;2023-04-30T12:22:56;2.85;;;2.47;;
9496;SDS011;4786;51.270;4.456;2023-04-30T12:25:23;4.65;;;2.88;;
9496;SDS011;4786;51.270;4.456;2023-04-30T12:27:52;2.88;;;2.40;;
9496;SDS011;4786;51.270;4.456;2023-04-30T12:30:27;2.40;;;2.20;;
9496;SDS011;4786;51.270;4.456;2023-04-30T12:32:55;3.08;;;2.80;;
9496;SDS011;4786;51.270;4.456;2023-04-30T12:35:23;3.05;;;2.65;;
9496;SDS011;4786;51.270;4.456;2023-04-30T12:37:52;2.78;;;2.58;;
9496;SDS011;4786;51.270;4.456;2023-04-30T12:40:25;3.97;;;3.10;;
9496;SDS011;4786;51.270;4.456;2023-04-30T12:42:59;4.10;;;3.70;;
9496;SDS011;4786;51.270;4.456;2023-04-30T12:48:10;3.30;;;2.92;;
9496;SDS011;4786;51.270;4.456;2023-04-30T12:50:37;4.10;;;3.35;;
9496;SDS011;4786;51.270;4.456;2023-04-30T12:53:06;4.13;;;3.17;;
9496;SDS011;4786;51.270;4.456;2023-04-30T12:55:32;3.83;;;3.53;;
9496;SDS011;4786;51.270;4.456;2023-04-30T12:58:01;5.13;;;4.10;;
9496;SDS011;4786;51.270;4.456;2023-04-30T13:00:28;3.70;;;3.30;;
9496;SDS011;4786;51.270;4.456;2023-04-30T13:02:55;3.53;;;3.20;;
9496;SDS011;4786;51.270;4.456;2023-04-30T13:05:21;3.92;;;3.63;;
9496;SDS011;4786;51.270;4.456;2023-04-30T13:07:47;3.63;;;3.33;;
9496;SDS011;4786;51.270;4.456;2023-04-30T13:10:19;4.47;;;4.07;;
9496;SDS011;4786;51.270;4.456;2023-04-30T13:12:46;4.57;;;3.83;;
9496;SDS011;4786;51.270;4.456;2023-04-30T13:15:12;3.90;;;3.50;;
9496;SDS011;4786;51.270;4.456;2023-04-30T13:17:38;4.32;;;3.65;;
9496;SDS011;4786;51.270;4.456;2023-04-30T13:20:05;4.00;;;3.22;;
9496;SDS011;4786;51.270;4.456;2023-04-30T13:22:32;3.13;;;2.83;;
9496;SDS011;4786;51.270;4.456;2023-04-30T13:24:57;4.72;;;3.47;;
9496;SDS011;4786;51.270;4.456;2023-04-30T13:27:23;3.63;;;3.17;;
9496;SDS011;4786;51.270;4.456;2023-04-30T13:29:49;4.63;;;3.50;;
9496;SDS011;4786;51.270;4.456;2023-04-30T13:32:15;3.38;;;3.03;;
9496;SDS011;4786;51.270;4.456;2023-04-30T13:34:41;2.50;;;2.30;;
9496;SDS011;4786;51.270;4.456;2023-04-30T13:37:07;3.10;;;2.80;;
9496;SDS011;4786;51.270;4.456;2023-04-30T13:39:32;3.97;;;3.58;;
9496;SDS011;4786;51.270;4.456;2023-04-30T13:41:58;4.28;;;3.83;;
9496;SDS011;4786;51.270;4.456;2023-04-30T13:44:24;4.15;;;3.75;;
9496;SDS011;4786;51.270;4.456;2023-04-30T13:46:50;4.28;;;3.88;;
9496;SDS011;4786;51.270;4.456;2023-04-30T13:49:16;3.90;;;3.50;;
9496;SDS011;4786;51.270;4.456;2023-04-30T13:51:42;3.45;;;3.10;;
9496;SDS011;4786;51.270;4.456;2023-04-30T13:54:07;4.15;;;3.53;;
9496;SDS011;4786;51.270;4.456;2023-04-30T13:56:33;3.92;;;3.63;;
9496;SDS011;4786;51.270;4.456;2023-04-30T13:58:59;4.00;;;3.10;;
9496;SDS011;4786;51.270;4.456;2023-04-30T14:01:25;2.63;;;2.42;;
9496;SDS011;4786;51.270;4.456;2023-04-30T14:03:51;3.22;;;2.72;;
9496;SDS011;4786;51.270;4.456;2023-04-30T14:06:17;3.33;;;3.03;;
9496;SDS011;4786;51.270;4.456;2023-04-30T14:08:42;3.08;;;2.78;;
9496;SDS011;4786;51.270;4.456;2023-04-30T14:11:08;3.25;;;3.05;;
9496;SDS011;4786;51.270;4.456;2023-04-30T14:13:34;2.83;;;2.63;;
9496;SDS011;4786;51.270;4.456;2023-04-30T14:16:00;2.92;;;2.72;;
9496;SDS011;4786;51.270;4.456;2023-04-30T14:18:26;2.95;;;2.75;;
9496;SDS011;4786;51.270;4.456;2023-04-30T14:20:52;4.13;;;2.60;;
9496;SDS011;4786;51.270;4.456;2023-04-30T14:23:18;3.20;;;2.90;;
9496;SDS011;4786;51.270;4.456;2023-04-30T14:25:44;2.97;;;2.60;;
9496;SDS011;4786;51.270;4.456;2023-04-30T14:28:11;3.60;;;2.80;;
9496;SDS011;4786;51.270;4.456;2023-04-30T14:30:36;2.65;;;2.45;;
9496;SDS011;4786;51.270;4.456;2023-04-30T14:33:03;3.65;;;2.90;;
9496;SDS011;4786;51.270;4.456;2023-04-30T14:35:29;2.80;;;2.60;;
9496;SDS011;4786;51.270;4.456;2023-04-30T14:37:55;2.90;;;2.50;;
9496;SDS011;4786;51.270;4.456;2023-04-30T14:40:21;2.95;;;2.75;;
9496;SDS011;4786;51.270;4.456;2023-04-30T14:42:47;3.08;;;2.78;;
9496;SDS011;4786;51.270;4.456;2023-04-30T14:45:14;2.80;;;2.60;;
9496;SDS011;4786;51.270;4.456;2023-04-30T14:47:40;3.28;;;2.97;;
9496;SDS011;4786;51.270;4.456;2023-04-30T14:50:06;2.70;;;2.50;;
9496;SDS011;4786;51.270;4.456;2023-04-30T14:52:33;2.90;;;2.45;;
9496;SDS011;4786;51.270;4.456;2023-04-30T14:54:59;3.45;;;2.85;;
9496;SDS011;4786;51.270;4.456;2023-04-30T14:57:27;3.65;;;2.90;;
9496;SDS011;4786;51.270;4.456;2023-04-30T14:59:53;3.95;;;3.03;;
9496;SDS011;4786;51.270;4.456;2023-04-30T15:02:21;2.58;;;2.25;;
9496;SDS011;4786;51.270;4.456;2023-04-30T15:04:47;3.00;;;2.80;;
9496;SDS011;4786;51.270;4.456;2023-04-30T15:07:13;4.40;;;3.47;;
9496;SDS011;4786;51.270;4.456;2023-04-30T15:09:39;2.78;;;2.58;;
9496;SDS011;4786;51.270;4.456;2023-04-30T15:12:05;3.00;;;2.80;;
9496;SDS011;4786;51.270;4.456;2023-04-30T15:14:31;3.67;;;2.38;;
9496;SDS011;4786;51.270;4.456;2023-04-30T15:16:57;3.10;;;2.80;;
9496;SDS011;4786;51.270;4.456;2023-04-30T15:19:24;3.38;;;2.70;;
9496;SDS011;4786;51.270;4.456;2023-04-30T15:21:50;2.25;;;2.13;;
9496;SDS011;4786;51.270;4.456;2023-04-30T15:24:16;3.13;;;2.10;;
9496;SDS011;4786;51.270;4.456;2023-04-30T15:26:43;3.30;;;2.90;;
9496;SDS011;4786;51.270;4.456;2023-04-30T15:29:09;3.22;;;2.92;;
9496;SDS011;4786;51.270;4.456;2023-04-30T15:31:34;3.08;;;2.80;;
9496;SDS011;4786;51.270;4.456;2023-04-30T15:34:01;2.70;;;2.45;;
9496;SDS011;4786;51.270;4.456;2023-04-30T15:36:27;2.05;;;1.90;;
9496;SDS011;4786;51.270;4.456;2023-04-30T15:38:53;2.53;;;2.33;;
9496;SDS011;4786;51.270;4.456;2023-04-30T15:41:19;2.70;;;2.50;;
9496;SDS011;4786;51.270;4.456;2023-04-30T15:43:46;2.83;;;2.63;;
9496;SDS011;4786;51.270;4.456;2023-04-30T15:46:12;3.40;;;2.90;;
9496;SDS011;4786;51.270;4.456;2023-04-30T15:48:38;2.55;;;2.22;;
9496;SDS011;4786;51.270;4.456;2023-04-30T15:51:04;2.65;;;2.40;;
9496;SDS011;4786;51.270;4.456;2023-04-30T15:53:30;2.47;;;2.27;;